Aérodrome :
LOGIN :

S'inscrire | Disclaimer

   EN    FR    IT 

 










Légende :    VFR   VFR Marginal   IFR   IFR Intensif   IFR Très Intensif
Visi : 
Plafond : 
>= 8 km
>= 3000ft
5 à 8 km
1000 à 3000 ft
1500m à 5 km
500 à 1000 ft
800 à 1500m
200 à 500 ft
< 800m
< 200 ft
Symboles :   Orages  Brouillard  Fortes neiges  Fortes précipitations  Vent > 20 kt
SIGMETs :   Divers  Orages  Givrage  Turbulence  Onde Orograph.  Cendres Volcan.







- Altitude de l'aérodrome : 80 ft
- Code IATA : LPL
- Voir les cartes d'approche


EGGP - Liverpool John Lennon

DERNIER METAR :
  • 191150Z 13009KT 090V170 9999 VCSH FEW002 BKN008 16/16 Q1006

METARs EXPIRÉS :
  • 191120Z 11010KT 090V160 9999 -DZ FEW007 BKN011 16/15 Q1006
  • 191050Z 11012KT 8000 -RA FEW004 SCT006 BKN011 16/15 Q1006
  • 191020Z 12009KT 6000 -RA SCT006 BKN013 BKN022 16/15 Q1007
  • 190950Z 13006KT 100V170 5000 RA BKN006 BKN010 OVC023 15/15 Q1008
  • 190920Z 13008KT 100V180 6000 RA SCT008 BKN018 OVC035 15/14 Q1007

TAF AMD TAF EGGP
Valide du 19 à 12h jusqu'au 20 à 12h UTC


191203Z 1912/2012 16008KT 9999 FEW040
PROB30
TEMPO 1912/1916 23018G28KT 4000 +SHRA TSGS BKN008CB
BECMG 2003/2006 26010KT
TEMPO 2003/2012 8000 -RA BKN014
PROB30
TEMPO 2006/2012 28015G25KT
ATIS : +44 151 907 2000 (option 5 or ext 5150)
Météo : +44 871 750 5150
Pas de NOTAMs connus pour ce terrain.



MET'MAP, la Météo Aéronautique d'un coup d'oeil ! - Copyright ORBIFLY Décembre 2007 - Disclaimer

ORBIFLY MET'MAP TEAM :

Programmation & Développement : Alexandra Zaïnal
Conception & Développement : Baudouin d'Aumeries
Co-Programmation & Développement : Marc-Olivier Méhu
Soutien technique & logistique : Manuel Goepfert

Contact : metmap@orbifly.com




SOURCES & CREDITS :

   NOAA